Terminal Aerodrome Forecast
Issued by NWS

Home | Current Version | Previous Version | Text Only | Print | Product List | Glossary Off
Versions: 1 2 3 4 5 6 7 8 9 10 11 12 13 14 15 16

000
FTUS43 KMPX 220520
TAFRWF
TAF
KRWF 220520Z 2206/2306 31007KT P6SM BKN090
     FM221000 26006KT P6SM SCT100
     FM221500 22007KT P6SM SCT020
     FM222200 20013KT P6SM SCT200=

USA.gov is the U.S. government's official web portal to all federal, state and local government web resources and services.